Changbai, China
Current Conditions -  °F | °C
As of 7:00 AM on Saturday 29 Nov 2014 (Local Time) from KQEI Reporting Station
Haze Haze  
Wind Chill: 45°   Ceiling: 2600
Heat Index: 45°   Visibility: 2.5mi
Dew Point: 43°   Wind: 1mph
Humidity: 93%   Direction: 30°NNE
Pressure: 30.16"   Gusts: NA
Location:  41.43°N, 128.14°E
Report Text: KQEI 282300Z AUTO 03001KT 4000 BR SCT008 BKN026 OVC042 07/06 A3016 RMK A02 TSNO
Loading
Personal Weather Stations






























Interactive Weather Map New forecast layout! Learn more

10-Day Weather Forecast

Advertisements
Track Severe Weather on mobile